createdAt,value
2023-01-05T00:01:53.358Z,0.90
2023-01-05T00:04:43.520Z,1.00
2023-01-05T00:07:32.228Z,0.90
2023-01-05T00:10:34.716Z,0.80
2023-01-05T00:13:41.292Z,0.93
2023-01-05T00:16:47.497Z,0.90
2023-01-05T00:19:54.657Z,0.68
2023-01-05T00:22:46.772Z,0.90
2023-01-05T00:25:39.050Z,0.60
2023-01-05T00:28:27.733Z,0.63
2023-01-05T00:31:16.392Z,0.80
2023-01-05T00:34:05.039Z,0.60
2023-01-05T00:36:53.695Z,0.93
2023-01-05T00:39:43.768Z,0.52
2023-01-05T00:42:32.355Z,0.98
2023-01-05T00:45:21.953Z,0.60
2023-01-05T00:48:10.641Z,0.68
2023-01-05T00:50:59.224Z,0.60
2023-01-05T00:53:49.696Z,0.40
2023-01-05T00:56:40.902Z,0.50
2023-01-05T00:59:29.526Z,0.40
2023-01-05T01:02:18.204Z,0.85
2023-01-05T01:05:07.823Z,0.70
2023-01-05T01:07:56.488Z,0.50
2023-01-05T01:10:45.062Z,0.30
2023-01-05T01:13:35.118Z,0.73
2023-01-05T01:16:23.849Z,0.57
2023-01-05T01:19:15.603Z,0.55
2023-01-05T01:22:04.377Z,0.55
2023-01-05T01:24:53.850Z,0.60
2023-01-05T01:27:42.523Z,0.63
2023-01-05T01:30:32.637Z,0.65
2023-01-05T01:33:21.353Z,0.40
2023-01-05T01:36:11.707Z,0.38
2023-01-05T01:39:00.331Z,0.30
2023-01-05T01:41:49.263Z,0.47
2023-01-05T01:44:56.003Z,0.80
2023-01-05T01:47:51.142Z,0.40
2023-01-05T01:50:43.302Z,0.40
2023-01-05T01:53:34.003Z,0.40
2023-01-05T01:56:24.555Z,0.25
2023-01-05T01:59:13.417Z,0.60
2023-01-05T02:02:03.332Z,0.47
2023-01-05T02:04:53.423Z,0.20
2023-01-05T02:07:46.184Z,0.20
2023-01-05T02:10:50.802Z,0.20
2023-01-05T02:13:50.449Z,0.30
2023-01-05T02:16:48.939Z,0.40
2023-01-05T02:20:03.985Z,0.30
2023-01-05T02:23:11.992Z,0.40
2023-01-05T02:26:35.025Z,0.30
2023-01-05T02:29:55.309Z,0.40
2023-01-05T02:32:49.390Z,0.20
2023-01-05T02:35:43.604Z,0.38
2023-01-05T02:38:36.718Z,0.40
2023-01-05T02:41:27.870Z,0.30
2023-01-05T02:44:17.972Z,0.22
2023-01-05T02:47:08.498Z,0.40
2023-01-05T02:50:02.431Z,0.20
2023-01-05T02:52:57.799Z,0.30
2023-01-05T02:55:53.684Z,0.13
2023-01-05T02:58:45.630Z,0.30
2023-01-05T03:01:36.043Z,0.30
2023-01-05T03:04:27.616Z,0.30
2023-01-05T03:07:20.634Z,0.25
2023-01-05T03:10:23.754Z,0.20
2023-01-05T03:13:30.255Z,0.20
2023-01-05T03:16:23.363Z,0.20
2023-01-05T03:19:31.787Z,0.22
2023-01-05T03:22:43.196Z,0.30
2023-01-05T03:25:49.645Z,0.22
2023-01-05T03:28:59.851Z,0.30
2023-01-05T03:32:08.670Z,0.28
2023-01-05T03:35:18.050Z,0.25
2023-01-05T03:38:18.122Z,0.20
2023-01-05T03:41:10.209Z,0.10
2023-01-05T03:43:58.935Z,0.20
2023-01-05T03:46:47.734Z,0.30
2023-01-05T03:49:36.600Z,0.20
2023-01-05T03:52:25.258Z,0.15
2023-01-05T03:55:15.244Z,0.68
2023-01-05T03:58:03.960Z,0.10
2023-01-05T04:00:52.584Z,0.20
2023-01-05T04:03:41.869Z,0.25
2023-01-05T04:06:30.592Z,0.25
2023-01-05T04:09:19.225Z,0.10
2023-01-05T04:12:09.332Z,0.20
2023-01-05T04:14:57.968Z,0.10
2023-01-05T04:17:46.574Z,0.17
2023-01-05T04:20:35.146Z,0.10
2023-01-05T04:23:23.765Z,0.13
2023-01-05T04:26:12.354Z,0.17
2023-01-05T04:29:02.338Z,0.30
2023-01-05T04:31:50.861Z,0.10
2023-01-05T04:34:39.552Z,0.20
2023-01-05T04:37:28.196Z,0.10
2023-01-05T04:40:16.974Z,0.10
2023-01-05T04:43:05.848Z,0.20
2023-01-05T04:45:55.843Z,0.20
2023-01-05T04:48:44.437Z,0.40
2023-01-05T04:51:33.111Z,0.10
2023-01-05T04:54:21.772Z,0.20
2023-01-05T04:57:10.397Z,0.10
2023-01-05T04:59:59.032Z,0.10
2023-01-05T05:02:50.026Z,0.13
2023-01-05T05:05:38.789Z,0.13
2023-01-05T05:08:27.420Z,0.15
2023-01-05T05:11:16.041Z,0.90
2023-01-05T05:14:04.634Z,0.20
2023-01-05T05:16:53.283Z,0.05
2023-01-05T05:19:43.413Z,0.10
2023-01-05T05:22:32.107Z,0.45
2023-01-05T05:25:20.730Z,0.75
2023-01-05T05:28:09.317Z,0.95
2023-01-05T05:30:58.664Z,0.73
2023-01-05T05:33:47.308Z,0.60
2023-01-05T05:36:38.133Z,0.55
2023-01-05T05:39:26.746Z,0.20
2023-01-05T05:42:15.361Z,0.50
2023-01-05T05:45:04.019Z,0.30
2023-01-05T05:47:52.633Z,0.68
2023-01-05T05:50:41.321Z,0.88
2023-01-05T05:53:31.372Z,0.85
2023-01-05T05:56:20.220Z,0.63
2023-01-05T05:59:08.886Z,0.40
2023-01-05T06:01:57.615Z,0.50
2023-01-05T06:04:46.353Z,0.50
2023-01-05T06:07:35.006Z,0.40
2023-01-05T06:10:24.982Z,0.40
2023-01-05T06:13:13.917Z,0.73
2023-01-05T06:16:02.623Z,0.32
2023-01-05T06:18:51.276Z,0.38
2023-01-05T06:21:39.880Z,0.50
2023-01-05T06:24:28.468Z,0.30
2023-01-05T06:27:18.568Z,0.38
2023-01-05T06:30:08.343Z,0.30
2023-01-05T06:32:57.097Z,0.30
2023-01-05T06:35:45.768Z,0.28
2023-01-05T06:38:34.352Z,0.10
2023-01-05T06:41:22.950Z,0.30
2023-01-05T06:44:13.071Z,0.10
2023-01-05T06:47:01.918Z,0.20
2023-01-05T06:49:50.542Z,0.43
2023-01-05T06:52:40.259Z,0.20
2023-01-05T06:55:30.119Z,0.20
2023-01-05T06:58:18.702Z,0.20
2023-01-05T07:01:08.903Z,0.25
2023-01-05T07:03:57.660Z,0.40
2023-01-05T07:06:46.324Z,0.20
2023-01-05T07:09:34.883Z,0.30
2023-01-05T07:12:23.534Z,0.25
2023-01-05T07:15:12.538Z,0.28
2023-01-05T07:18:02.507Z,0.57
2023-01-05T07:20:51.111Z,0.20
2023-01-05T07:23:39.787Z,0.28
2023-01-05T07:26:28.422Z,0.40
2023-01-05T07:29:17.164Z,0.15
2023-01-05T07:32:06.613Z,0.10
2023-01-05T07:34:56.654Z,0.30
2023-01-05T07:37:45.407Z,0.20
2023-01-05T07:40:33.965Z,0.10
2023-01-05T07:43:22.672Z,0.10
2023-01-05T07:46:11.731Z,0.20
2023-01-05T07:49:00.420Z,0.20
2023-01-05T07:51:50.432Z,0.20
2023-01-05T07:54:39.164Z,0.22
2023-01-05T07:57:27.940Z,0.20
2023-01-05T08:00:17.216Z,0.10
2023-01-05T08:03:05.872Z,0.10
2023-01-05T08:05:54.478Z,0.20
2023-01-05T08:08:44.521Z,0.30
2023-01-05T08:11:33.187Z,0.05
2023-01-05T08:14:21.943Z,0.20
2023-01-05T08:17:10.611Z,0.10
2023-01-05T08:19:59.249Z,0.30
2023-01-05T08:22:52.082Z,0.10
2023-01-05T08:25:42.058Z,0.00
2023-01-05T08:28:35.219Z,0.22
2023-01-05T08:31:27.085Z,0.20
2023-01-05T08:34:15.809Z,0.10
2023-01-05T08:37:04.519Z,0.03
2023-01-05T08:39:53.220Z,0.10
2023-01-05T08:42:43.280Z,0.20
2023-01-05T08:45:32.005Z,0.20
2023-01-05T08:48:20.672Z,0.17
2023-01-05T08:51:09.291Z,0.00
2023-01-05T08:53:59.046Z,0.30
2023-01-05T08:56:50.519Z,0.00
2023-01-05T08:59:40.736Z,0.10
2023-01-05T09:02:29.486Z,0.30
2023-01-05T09:05:18.575Z,0.20
2023-01-05T09:08:07.209Z,0.10
2023-01-05T09:10:55.979Z,0.40
2023-01-05T09:13:47.880Z,0.10
2023-01-05T09:19:46.587Z,1.00
2023-01-05T09:22:36.287Z,1.35
2023-01-05T09:25:25.126Z,0.38
2023-01-05T09:28:13.800Z,0.75
2023-01-05T09:31:08.196Z,0.60
2023-01-05T09:33:59.588Z,0.80
2023-01-05T09:36:48.452Z,0.40
2023-01-05T09:39:37.118Z,0.52
2023-01-05T09:42:27.498Z,0.50
2023-01-05T09:45:23.298Z,0.50
2023-01-05T09:48:13.669Z,0.55
2023-01-05T09:51:03.697Z,0.70
2023-01-05T09:53:52.495Z,0.70
2023-01-05T09:57:08.960Z,0.45
2023-01-05T09:59:54.405Z,0.98
2023-01-05T10:02:48.072Z,0.55
2023-01-05T10:05:40.234Z,0.68
2023-01-05T10:08:35.843Z,0.73
2023-01-05T10:11:47.069Z,0.80
2023-01-05T10:14:40.040Z,0.85
2023-01-05T10:17:41.339Z,0.80
2023-01-05T10:20:37.627Z,0.40
2023-01-05T10:23:50.922Z,0.70
2023-01-05T10:27:14.354Z,0.45
2023-01-05T10:29:59.618Z,0.50
2023-01-05T10:33:14.829Z,0.43
2023-01-05T10:36:16.579Z,0.50
2023-01-05T10:39:14.009Z,0.63
2023-01-05T10:42:08.096Z,0.65
2023-01-05T10:44:59.072Z,0.55
2023-01-05T10:47:48.576Z,0.50
2023-01-05T10:50:39.143Z,0.45
2023-01-05T10:53:29.554Z,0.50
2023-01-05T10:56:25.698Z,0.52
2023-01-05T10:59:15.823Z,0.38
2023-01-05T11:02:04.740Z,0.95
2023-01-05T11:04:54.096Z,0.40
2023-01-05T11:07:48.742Z,0.50
2023-01-05T11:10:39.600Z,0.55
2023-01-05T11:13:34.843Z,0.47
2023-01-05T11:16:26.413Z,0.32
2023-01-05T11:19:18.171Z,0.30
2023-01-05T11:22:06.813Z,0.25
2023-01-05T11:24:55.390Z,0.10
2023-01-05T11:27:44.035Z,0.35
2023-01-05T11:30:34.676Z,0.32
2023-01-05T11:33:25.989Z,0.30
2023-01-05T11:36:16.318Z,0.20
2023-01-05T11:39:05.133Z,0.30
2023-01-05T11:41:53.859Z,0.30
2023-01-05T11:44:47.783Z,0.45
2023-01-05T11:47:44.383Z,0.50
2023-01-05T11:50:35.638Z,0.20
2023-01-05T11:53:37.710Z,0.10
2023-01-05T11:56:26.796Z,0.40
2023-01-05T11:59:30.770Z,0.32
2023-01-05T12:02:34.898Z,0.32
2023-01-05T12:05:30.542Z,0.20
2023-01-05T12:08:23.092Z,0.45
2023-01-05T12:11:14.520Z,0.40
2023-01-05T12:14:21.374Z,0.52
2023-01-05T12:17:15.148Z,0.30
2023-01-05T12:20:14.072Z,0.10
2023-01-05T12:23:19.058Z,0.17
2023-01-05T12:26:15.774Z,0.20
2023-01-05T12:36:18.678Z,0.30
2023-01-05T12:39:31.582Z,0.20
2023-01-05T12:42:34.331Z,0.15
2023-01-05T12:45:58.429Z,0.20
2023-01-05T12:48:49.997Z,0.10
2023-01-05T12:51:42.781Z,0.20
2023-01-05T12:54:39.874Z,0.10
2023-01-05T12:57:32.704Z,0.10
2023-01-05T13:00:22.238Z,0.10
2023-01-05T13:03:17.376Z,0.17
2023-01-05T13:06:08.705Z,0.10
2023-01-05T13:08:59.990Z,0.10
2023-01-05T13:11:53.188Z,0.10
2023-01-05T13:14:52.545Z,0.10
2023-01-05T13:17:44.362Z,0.10
2023-01-05T13:20:40.230Z,0.05
2023-01-05T13:23:30.905Z,0.10
2023-01-05T13:26:20.526Z,0.10
2023-01-05T13:29:23.021Z,0.20
2023-01-05T13:32:23.522Z,0.10
2023-01-05T13:35:23.284Z,0.10
2023-01-05T13:39:00.094Z,0.10
2023-01-05T13:42:08.946Z,0.20
2023-01-05T13:45:25.308Z,0.10
2023-01-05T13:48:44.257Z,0.10
2023-01-05T13:51:47.031Z,0.15
2023-01-05T13:54:59.920Z,0.03
2023-01-05T13:57:49.973Z,0.30
2023-01-05T14:00:43.654Z,0.20
2023-01-05T14:03:34.615Z,0.00
2023-01-05T14:06:26.713Z,0.30
2023-01-05T14:09:18.330Z,0.20
2023-01-05T14:12:25.806Z,0.00
2023-01-05T14:15:37.887Z,0.00
2023-01-05T14:18:52.303Z,0.00
2023-01-05T14:22:02.455Z,0.00
2023-01-05T14:24:52.375Z,0.32
2023-01-05T14:28:24.179Z,0.10
2023-01-05T14:31:38.402Z,0.30
2023-01-05T14:34:29.631Z,0.40
2023-01-05T14:37:24.233Z,0.40
2023-01-05T14:40:22.834Z,0.45
2023-01-05T14:43:24.576Z,0.50
2023-01-05T14:46:15.162Z,0.30
2023-01-05T14:49:06.920Z,0.40
2023-01-05T14:51:58.438Z,0.40
2023-01-05T14:55:27.124Z,0.22
2023-01-05T14:58:50.779Z,0.30
2023-01-05T15:04:33.182Z,0.30
2023-01-05T15:07:33.594Z,0.30
2023-01-05T15:10:49.816Z,0.40
2023-01-05T15:14:15.987Z,0.30
2023-01-05T15:17:45.258Z,0.20
2023-01-05T15:21:19.482Z,0.20
2023-01-05T15:24:49.974Z,0.30
2023-01-05T15:27:51.218Z,0.30
2023-01-05T15:31:04.992Z,0.20
2023-01-05T15:33:57.705Z,0.63
2023-01-05T15:36:51.578Z,0.10
2023-01-05T15:39:48.684Z,0.32
2023-01-05T15:42:40.489Z,0.20
2023-01-05T15:45:30.805Z,0.50
2023-01-05T15:48:27.174Z,0.43
2023-01-05T15:51:24.128Z,0.10
2023-01-05T15:54:24.126Z,0.20
2023-01-05T15:57:22.134Z,0.30
2023-01-05T16:00:18.840Z,0.10
2023-01-05T16:03:22.044Z,0.22
2023-01-05T16:06:12.893Z,0.10
2023-01-05T16:09:09.796Z,0.30
2023-01-05T16:12:01.093Z,0.25
2023-01-05T16:14:57.730Z,0.15
2023-01-05T16:17:46.500Z,0.30
2023-01-05T16:20:36.528Z,0.20
2023-01-05T16:23:29.999Z,0.20
2023-01-05T16:26:19.420Z,0.20
2023-01-05T16:29:21.891Z,0.20
2023-01-05T16:32:28.248Z,0.30
2023-01-05T16:35:33.119Z,0.30
2023-01-05T16:38:26.824Z,0.03
2023-01-05T16:41:21.189Z,0.17
2023-01-05T16:44:14.133Z,0.10
2023-01-05T16:47:07.536Z,0.30
2023-01-05T16:49:58.522Z,1.77
2023-01-05T16:52:53.457Z,2.90
2023-01-05T16:55:42.555Z,1.73
2023-01-05T16:58:39.333Z,1.15
2023-01-05T17:01:35.753Z,1.30
2023-01-05T17:04:24.449Z,1.67
2023-01-05T17:07:14.437Z,1.65
2023-01-05T17:10:03.008Z,1.40
2023-01-05T17:12:57.792Z,1.35
2023-01-05T17:15:47.854Z,1.60
2023-01-05T17:18:36.505Z,1.55
2023-01-05T17:21:27.456Z,1.25
2023-01-05T17:24:17.525Z,0.85
2023-01-05T17:27:06.185Z,1.00
2023-01-05T17:32:49.142Z,1.40
2023-01-05T17:35:37.803Z,1.25
2023-01-05T17:38:26.416Z,1.20
2023-01-05T17:41:17.142Z,1.02
2023-01-05T17:44:06.188Z,1.10
2023-01-05T17:46:54.852Z,1.20
2023-01-05T17:49:43.833Z,1.05
2023-01-05T17:52:32.497Z,1.35
2023-01-05T17:55:21.120Z,0.88
2023-01-05T17:58:13.407Z,1.08
2023-01-05T18:01:02.155Z,1.10
2023-01-05T18:03:50.952Z,1.33
2023-01-05T18:06:39.596Z,1.00
2023-01-05T18:09:28.305Z,1.13
2023-01-05T18:12:16.881Z,0.93
2023-01-05T18:15:08.306Z,0.88
2023-01-05T18:17:58.272Z,0.90
2023-01-05T18:20:46.881Z,1.10
2023-01-05T18:23:35.873Z,0.98
2023-01-05T18:26:24.510Z,0.57
2023-01-05T18:29:13.213Z,0.73
2023-01-05T18:32:03.166Z,0.60
2023-01-05T18:34:52.361Z,0.80
2023-01-05T18:37:41.643Z,1.75
2023-01-05T18:40:30.275Z,0.82
2023-01-05T18:43:19.124Z,0.63
2023-01-05T18:46:08.212Z,0.75
2023-01-05T18:48:58.152Z,0.40
2023-01-05T18:51:46.788Z,0.63
2023-01-05T18:54:35.443Z,0.70
2023-01-05T18:57:24.111Z,0.60
2023-01-05T19:00:14.155Z,0.80
2023-01-05T19:03:05.243Z,0.80
2023-01-05T19:05:55.186Z,0.82
2023-01-05T19:08:44.140Z,1.17
2023-01-05T19:11:33.050Z,0.70
2023-01-05T19:14:21.700Z,0.65
2023-01-05T19:17:10.318Z,0.38
2023-01-05T19:19:58.990Z,0.50
2023-01-05T19:22:49.128Z,0.68
2023-01-05T19:25:37.780Z,0.68
2023-01-05T19:28:26.406Z,0.93
2023-01-05T19:31:16.348Z,0.20
2023-01-05T19:34:05.715Z,0.40
2023-01-05T19:36:54.322Z,0.63
2023-01-05T19:39:44.317Z,0.60
2023-01-05T19:42:33.160Z,0.50
2023-01-05T19:45:21.848Z,0.55
2023-01-05T19:48:10.466Z,0.57
2023-01-05T19:50:59.691Z,0.50
2023-01-05T19:53:55.414Z,0.25
2023-01-05T19:56:46.232Z,0.60
2023-01-05T19:59:34.876Z,0.32
2023-01-05T20:02:23.463Z,0.43
2023-01-05T20:05:14.061Z,0.63
2023-01-05T20:08:02.839Z,0.40
2023-01-05T20:10:51.366Z,0.30
2023-01-05T20:13:42.012Z,0.70
2023-01-05T20:16:30.654Z,0.10
2023-01-05T20:19:19.916Z,0.40
2023-01-05T20:22:13.559Z,0.43
2023-01-05T20:25:02.302Z,0.45
2023-01-05T20:27:51.073Z,0.32
2023-01-05T20:30:41.018Z,0.25
2023-01-05T20:33:30.082Z,0.30
2023-01-05T20:36:18.772Z,0.30
2023-01-05T20:39:08.869Z,0.10
2023-01-05T20:42:04.549Z,0.38
2023-01-05T20:44:53.313Z,0.20
2023-01-05T20:47:47.702Z,0.20
2023-01-05T20:50:36.742Z,0.43
2023-01-05T20:53:25.349Z,0.30
2023-01-05T20:56:16.051Z,0.32
2023-01-05T20:59:04.986Z,0.30
2023-01-05T21:01:53.682Z,0.25
2023-01-05T21:04:43.659Z,0.10
2023-01-05T21:07:32.274Z,0.25
2023-01-05T21:10:20.965Z,0.40
2023-01-05T21:13:30.750Z,0.50
2023-01-05T21:16:20.485Z,0.30
2023-01-05T21:19:09.652Z,0.30
2023-01-05T21:21:59.987Z,0.30
2023-01-05T21:24:48.663Z,0.38
2023-01-05T21:27:37.498Z,0.20
2023-01-05T21:30:26.044Z,0.57
2023-01-05T21:33:15.405Z,0.10
2023-01-05T21:36:04.233Z,0.20
2023-01-05T21:39:01.187Z,0.22
2023-01-05T21:42:09.946Z,0.30
2023-01-05T21:44:58.661Z,5.70
2023-01-05T21:47:52.958Z,3.92
2023-01-05T21:50:59.250Z,1.70
2023-01-05T21:54:07.970Z,2.15
2023-01-05T21:56:59.091Z,1.85
2023-01-05T21:59:47.717Z,2.20
2023-01-05T22:02:36.450Z,2.40
2023-01-05T22:05:25.018Z,1.58
2023-01-05T22:08:13.704Z,1.45
2023-01-05T22:11:02.881Z,2.22
2023-01-05T22:13:52.915Z,1.55
2023-01-05T22:16:41.803Z,1.60
2023-01-05T22:19:30.433Z,1.67
2023-01-05T22:22:19.121Z,1.38
2023-01-05T22:25:08.541Z,1.15
2023-01-05T22:27:57.630Z,1.25
2023-01-05T22:30:47.610Z,1.23
2023-01-05T22:33:38.084Z,1.63
2023-01-05T22:36:27.968Z,1.60
2023-01-05T22:39:16.824Z,1.17
2023-01-05T22:42:05.586Z,1.10
2023-01-05T22:44:54.151Z,1.60
2023-01-05T22:47:44.194Z,1.02
2023-01-05T22:50:33.485Z,1.20
2023-01-05T22:53:22.374Z,1.10
2023-01-05T22:56:12.700Z,1.23
2023-01-05T22:59:01.832Z,1.00
2023-01-05T23:01:50.779Z,1.08
2023-01-05T23:04:40.766Z,0.98
2023-01-05T23:07:29.409Z,0.68
2023-01-05T23:10:18.247Z,1.05
2023-01-05T23:13:07.064Z,0.80
2023-01-05T23:15:56.321Z,1.10
2023-01-05T23:18:45.254Z,0.80
2023-01-05T23:21:35.706Z,0.95
2023-01-05T23:24:24.890Z,0.63
2023-01-05T23:27:13.527Z,1.00
2023-01-05T23:30:02.152Z,0.63
2023-01-05T23:32:50.770Z,1.05
2023-01-05T23:35:40.052Z,0.90
2023-01-05T23:38:30.358Z,0.95
2023-01-05T23:41:19.448Z,0.82
2023-01-05T23:44:08.738Z,0.70
2023-01-05T23:46:57.336Z,0.50
2023-01-05T23:49:46.079Z,0.82
2023-01-05T23:52:35.029Z,0.95
2023-01-05T23:55:25.067Z,0.75
2023-01-05T23:58:13.826Z,0.93
